sensor_id;sensor_type;location;lat;lon;timestamp;temperature;humidity
79244;SHT31;68672;42.676;23.356;2023-08-01T00:00:00;22.77;55.83
79244;SHT31;68672;42.676;23.356;2023-08-01T00:02:26;22.83;55.80
79244;SHT31;68672;42.676;23.356;2023-08-01T00:04:51;22.80;55.81
79244;SHT31;68672;42.676;23.356;2023-08-01T00:07:17;22.78;55.82
79244;SHT31;68672;42.676;23.356;2023-08-01T00:09:42;22.77;55.77
79244;SHT31;68672;42.676;23.356;2023-08-01T00:12:11;22.77;55.83
79244;SHT31;68672;42.676;23.356;2023-08-01T00:14:36;22.74;55.90
79244;SHT31;68672;42.676;23.356;2023-08-01T00:17:05;22.73;55.97
79244;SHT31;68672;42.676;23.356;2023-08-01T00:19:30;22.73;55.96
79244;SHT31;68672;42.676;23.356;2023-08-01T00:21:56;22.70;55.94
79244;SHT31;68672;42.676;23.356;2023-08-01T00:24:21;22.67;56.02
79244;SHT31;68672;42.676;23.356;2023-08-01T00:26:46;22.63;56.14
79244;SHT31;68672;42.676;23.356;2023-08-01T00:29:13;22.60;56.22
79244;SHT31;68672;42.676;23.356;2023-08-01T00:31:38;22.57;56.23
79244;SHT31;68672;42.676;23.356;2023-08-01T00:34:03;22.59;56.22
79244;SHT31;68672;42.676;23.356;2023-08-01T00:36:29;22.61;56.16
79244;SHT31;68672;42.676;23.356;2023-08-01T00:38:54;22.59;56.23
79244;SHT31;68672;42.676;23.356;2023-08-01T00:41:20;22.50;56.41
79244;SHT31;68672;42.676;23.356;2023-08-01T00:43:45;22.47;56.48
79244;SHT31;68672;42.676;23.356;2023-08-01T00:46:14;22.49;56.57
79244;SHT31;68672;42.676;23.356;2023-08-01T00:48:39;22.49;56.47
79244;SHT31;68672;42.676;23.356;2023-08-01T00:51:06;22.47;56.43
79244;SHT31;68672;42.676;23.356;2023-08-01T00:53:32;22.40;56.64
79244;SHT31;68672;42.676;23.356;2023-08-01T00:55:58;22.36;56.74
79244;SHT31;68672;42.676;23.356;2023-08-01T00:58:24;22.37;56.84
79244;SHT31;68672;42.676;23.356;2023-08-01T01:00:53;22.37;56.80
79244;SHT31;68672;42.676;23.356;2023-08-01T01:03:18;22.42;56.76
79244;SHT31;68672;42.676;23.356;2023-08-01T01:05:53;22.36;56.86
79244;SHT31;68672;42.676;23.356;2023-08-01T01:08:21;22.32;56.96
79244;SHT31;68672;42.676;23.356;2023-08-01T01:10:47;22.30;56.97
79244;SHT31;68672;42.676;23.356;2023-08-01T01:13:12;22.36;56.72
79244;SHT31;68672;42.676;23.356;2023-08-01T01:15:37;22.36;56.51
79244;SHT31;68672;42.676;23.356;2023-08-01T01:18:03;22.33;56.51
79244;SHT31;68672;42.676;23.356;2023-08-01T01:20:35;22.33;56.57
79244;SHT31;68672;42.676;23.356;2023-08-01T01:23:05;22.36;56.53
79244;SHT31;68672;42.676;23.356;2023-08-01T01:25:32;22.29;56.59
79244;SHT31;68672;42.676;23.356;2023-08-01T01:27:59;22.30;56.56
79244;SHT31;68672;42.676;23.356;2023-08-01T01:30:26;22.32;56.36
79244;SHT31;68672;42.676;23.356;2023-08-01T01:32:52;22.28;56.43
79244;SHT31;68672;42.676;23.356;2023-08-01T01:35:18;22.33;56.24
79244;SHT31;68672;42.676;23.356;2023-08-01T01:37:43;22.28;56.39
79244;SHT31;68672;42.676;23.356;2023-08-01T01:40:15;22.26;56.34
79244;SHT31;68672;42.676;23.356;2023-08-01T01:42:41;22.33;56.33
79244;SHT31;68672;42.676;23.356;2023-08-01T01:45:06;22.30;56.17
79244;SHT31;68672;42.676;23.356;2023-08-01T01:47:32;22.37;55.71
79244;SHT31;68672;42.676;23.356;2023-08-01T01:49:57;22.35;55.69
79244;SHT31;68672;42.676;23.356;2023-08-01T01:52:23;22.33;55.77
79244;SHT31;68672;42.676;23.356;2023-08-01T01:54:48;22.30;55.75
79244;SHT31;68672;42.676;23.356;2023-08-01T01:57:14;22.32;55.76
79244;SHT31;68672;42.676;23.356;2023-08-01T01:59:39;22.36;55.88
79244;SHT31;68672;42.676;23.356;2023-08-01T02:02:05;22.30;55.76
79244;SHT31;68672;42.676;23.356;2023-08-01T02:04:30;22.28;55.77
79244;SHT31;68672;42.676;23.356;2023-08-01T02:06:56;22.30;55.32
79244;SHT31;68672;42.676;23.356;2023-08-01T02:09:21;22.23;55.39
79244;SHT31;68672;42.676;23.356;2023-08-01T02:11:47;22.20;55.46
79244;SHT31;68672;42.676;23.356;2023-08-01T02:14:15;22.14;55.45
79244;SHT31;68672;42.676;23.356;2023-08-01T02:16:41;22.09;55.59
79244;SHT31;68672;42.676;23.356;2023-08-01T02:19:06;22.08;55.78
79244;SHT31;68672;42.676;23.356;2023-08-01T02:21:34;22.06;56.15
79244;SHT31;68672;42.676;23.356;2023-08-01T02:24:05;22.01;56.53
79244;SHT31;68672;42.676;23.356;2023-08-01T02:26:31;21.92;56.87
79244;SHT31;68672;42.676;23.356;2023-08-01T02:28:56;21.79;57.40
79244;SHT31;68672;42.676;23.356;2023-08-01T02:31:22;21.77;58.02
79244;SHT31;68672;42.676;23.356;2023-08-01T02:33:47;21.75;58.48
79244;SHT31;68672;42.676;23.356;2023-08-01T02:36:13;21.72;58.67
79244;SHT31;68672;42.676;23.356;2023-08-01T02:38:38;21.72;58.64
79244;SHT31;68672;42.676;23.356;2023-08-01T02:41:04;21.72;58.54
79244;SHT31;68672;42.676;23.356;2023-08-01T02:43:29;21.66;58.60
79244;SHT31;68672;42.676;23.356;2023-08-01T02:45:55;21.58;58.66
79244;SHT31;68672;42.676;23.356;2023-08-01T02:48:28;21.53;58.69
79244;SHT31;68672;42.676;23.356;2023-08-01T02:50:53;21.48;58.69
79244;SHT31;68672;42.676;23.356;2023-08-01T02:53:19;21.48;58.71
79244;SHT31;68672;42.676;23.356;2023-08-01T02:55:44;21.48;58.74
79244;SHT31;68672;42.676;23.356;2023-08-01T02:58:12;21.48;58.74
79244;SHT31;68672;42.676;23.356;2023-08-01T03:00:41;21.44;58.72
79244;SHT31;68672;42.676;23.356;2023-08-01T03:03:06;21.43;58.73
79244;SHT31;68672;42.676;23.356;2023-08-01T03:05:32;21.41;58.83
79244;SHT31;68672;42.676;23.356;2023-08-01T03:07:57;21.34;59.16
79244;SHT31;68672;42.676;23.356;2023-08-01T03:10:23;21.33;59.41
79244;SHT31;68672;42.676;23.356;2023-08-01T03:12:49;21.28;59.57
79244;SHT31;68672;42.676;23.356;2023-08-01T03:15:14;21.20;59.84
79244;SHT31;68672;42.676;23.356;2023-08-01T03:17:39;21.17;59.85
79244;SHT31;68672;42.676;23.356;2023-08-01T03:20:05;21.14;59.75
79244;SHT31;68672;42.676;23.356;2023-08-01T03:22:38;21.10;59.73
79244;SHT31;68672;42.676;23.356;2023-08-01T03:25:05;21.04;60.02
79244;SHT31;68672;42.676;23.356;2023-08-01T03:27:33;21.06;60.13
79244;SHT31;68672;42.676;23.356;2023-08-01T03:29:58;21.02;60.39
79244;SHT31;68672;42.676;23.356;2023-08-01T03:32:24;20.93;60.77
79244;SHT31;68672;42.676;23.356;2023-08-01T03:34:52;20.86;61.05
79244;SHT31;68672;42.676;23.356;2023-08-01T03:37:17;20.80;61.27
79244;SHT31;68672;42.676;23.356;2023-08-01T03:39:43;20.77;61.78
79244;SHT31;68672;42.676;23.356;2023-08-01T03:42:09;20.69;61.91
79244;SHT31;68672;42.676;23.356;2023-08-01T03:44:34;20.65;62.07
79244;SHT31;68672;42.676;23.356;2023-08-01T03:46:59;20.57;62.34
79244;SHT31;68672;42.676;23.356;2023-08-01T03:49:25;20.56;62.25
79244;SHT31;68672;42.676;23.356;2023-08-01T03:51:50;20.53;62.40
79244;SHT31;68672;42.676;23.356;2023-08-01T03:54:16;20.48;62.44
79244;SHT31;68672;42.676;23.356;2023-08-01T03:56:41;20.45;62.17
79244;SHT31;68672;42.676;23.356;2023-08-01T03:59:12;20.45;62.02
79244;SHT31;68672;42.676;23.356;2023-08-01T04:01:38;20.42;62.17
79244;SHT31;68672;42.676;23.356;2023-08-01T04:04:03;20.41;62.01
79244;SHT31;68672;42.676;23.356;2023-08-01T04:06:32;20.38;61.92
79244;SHT31;68672;42.676;23.356;2023-08-01T04:08:57;20.34;62.08
79244;SHT31;68672;42.676;23.356;2023-08-01T04:11:25;20.29;62.39
79244;SHT31;68672;42.676;23.356;2023-08-01T04:13:50;20.35;62.18
79244;SHT31;68672;42.676;23.356;2023-08-01T04:16:16;20.34;62.07
79244;SHT31;68672;42.676;23.356;2023-08-01T04:18:41;20.34;62.13
79244;SHT31;68672;42.676;23.356;2023-08-01T04:21:08;20.32;62.00
79244;SHT31;68672;42.676;23.356;2023-08-01T04:23:33;20.35;62.01
79244;SHT31;68672;42.676;23.356;2023-08-01T04:25:59;20.35;61.93
79244;SHT31;68672;42.676;23.356;2023-08-01T04:28:25;20.39;61.99
79244;SHT31;68672;42.676;23.356;2023-08-01T04:30:51;20.45;61.70
79244;SHT31;68672;42.676;23.356;2023-08-01T04:33:17;20.49;61.36
79244;SHT31;68672;42.676;23.356;2023-08-01T04:35:42;20.44;61.51
79244;SHT31;68672;42.676;23.356;2023-08-01T04:38:08;20.49;61.44
79244;SHT31;68672;42.676;23.356;2023-08-01T04:40:36;20.52;61.32
79244;SHT31;68672;42.676;23.356;2023-08-01T04:43:02;20.61;61.18
79244;SHT31;68672;42.676;23.356;2023-08-01T04:45:28;20.59;61.10
79244;SHT31;68672;42.676;23.356;2023-08-01T04:47:53;20.68;60.96
79244;SHT31;68672;42.676;23.356;2023-08-01T04:50:19;20.75;60.96
79244;SHT31;68672;42.676;23.356;2023-08-01T04:52:44;20.75;60.91
79244;SHT31;68672;42.676;23.356;2023-08-01T04:55:10;20.75;60.66
79244;SHT31;68672;42.676;23.356;2023-08-01T04:57:42;20.82;60.57
79244;SHT31;68672;42.676;23.356;2023-08-01T05:00:09;20.87;60.43
79244;SHT31;68672;42.676;23.356;2023-08-01T05:02:37;20.90;60.37
79244;SHT31;68672;42.676;23.356;2023-08-01T05:05:03;21.00;60.01
79244;SHT31;68672;42.676;23.356;2023-08-01T05:07:29;21.04;59.56
79244;SHT31;68672;42.676;23.356;2023-08-01T05:09:55;21.10;59.42
79244;SHT31;68672;42.676;23.356;2023-08-01T05:12:20;21.17;59.18
79244;SHT31;68672;42.676;23.356;2023-08-01T05:14:46;21.22;58.97
79244;SHT31;68672;42.676;23.356;2023-08-01T05:17:11;21.20;59.00
79244;SHT31;68672;42.676;23.356;2023-08-01T05:19:37;21.28;58.89
79244;SHT31;68672;42.676;23.356;2023-08-01T05:22:05;21.37;58.65
79244;SHT31;68672;42.676;23.356;2023-08-01T05:24:31;21.38;58.61
79244;SHT31;68672;42.676;23.356;2023-08-01T05:26:59;21.47;58.33
79244;SHT31;68672;42.676;23.356;2023-08-01T05:29:25;21.54;58.13
79244;SHT31;68672;42.676;23.356;2023-08-01T05:31:50;21.59;58.05
79244;SHT31;68672;42.676;23.356;2023-08-01T05:34:15;21.65;58.05
79244;SHT31;68672;42.676;23.356;2023-08-01T05:36:41;21.75;57.92
79244;SHT31;68672;42.676;23.356;2023-08-01T05:39:07;21.77;57.49
79244;SHT31;68672;42.676;23.356;2023-08-01T05:41:35;21.84;57.26
79244;SHT31;68672;42.676;23.356;2023-08-01T05:44:02;21.88;56.95
79244;SHT31;68672;42.676;23.356;2023-08-01T05:46:30;21.92;56.66
79244;SHT31;68672;42.676;23.356;2023-08-01T05:48:58;22.02;56.24
79244;SHT31;68672;42.676;23.356;2023-08-01T05:51:23;22.01;55.65
79244;SHT31;68672;42.676;23.356;2023-08-01T05:53:49;22.10;55.60
79244;SHT31;68672;42.676;23.356;2023-08-01T05:56:14;22.16;55.49
79244;SHT31;68672;42.676;23.356;2023-08-01T05:58:40;22.20;55.12
79244;SHT31;68672;42.676;23.356;2023-08-01T06:01:05;22.22;55.30
79244;SHT31;68672;42.676;23.356;2023-08-01T06:03:31;22.24;54.98
79244;SHT31;68672;42.676;23.356;2023-08-01T06:05:56;22.32;54.97
79244;SHT31;68672;42.676;23.356;2023-08-01T06:08:22;22.43;55.49
79244;SHT31;68672;42.676;23.356;2023-08-01T06:10:47;22.44;54.49
79244;SHT31;68672;42.676;23.356;2023-08-01T06:13:13;22.47;53.87
79244;SHT31;68672;42.676;23.356;2023-08-01T06:15:38;22.57;54.06
79244;SHT31;68672;42.676;23.356;2023-08-01T06:18:04;22.64;54.21
79244;SHT31;68672;42.676;23.356;2023-08-01T06:20:29;22.73;54.01
79244;SHT31;68672;42.676;23.356;2023-08-01T06:22:55;22.80;53.87
79244;SHT31;68672;42.676;23.356;2023-08-01T06:25:20;22.90;53.56
79244;SHT31;68672;42.676;23.356;2023-08-01T06:27:45;22.94;53.01
79244;SHT31;68672;42.676;23.356;2023-08-01T06:30:11;23.04;53.03
79244;SHT31;68672;42.676;23.356;2023-08-01T06:32:37;23.16;52.70
79244;SHT31;68672;42.676;23.356;2023-08-01T06:35:05;23.29;52.50
79244;SHT31;68672;42.676;23.356;2023-08-01T06:37:31;23.38;52.10
79244;SHT31;68672;42.676;23.356;2023-08-01T06:40:02;23.43;51.95
79244;SHT31;68672;42.676;23.356;2023-08-01T06:42:28;23.50;51.96
79244;SHT31;68672;42.676;23.356;2023-08-01T06:44:53;23.58;51.88
79244;SHT31;68672;42.676;23.356;2023-08-01T06:47:19;23.63;51.91
79244;SHT31;68672;42.676;23.356;2023-08-01T06:49:44;23.72;51.92
79244;SHT31;68672;42.676;23.356;2023-08-01T06:52:10;23.79;52.28
79244;SHT31;68672;42.676;23.356;2023-08-01T06:54:35;23.83;51.70
79244;SHT31;68672;42.676;23.356;2023-08-01T06:57:01;23.87;51.08
79244;SHT31;68672;42.676;23.356;2023-08-01T06:59:27;23.89;50.57
79244;SHT31;68672;42.676;23.356;2023-08-01T07:01:52;23.86;50.24
79244;SHT31;68672;42.676;23.356;2023-08-01T07:04:18;23.93;50.56
79244;SHT31;68672;42.676;23.356;2023-08-01T07:06:43;24.01;50.82
79244;SHT31;68672;42.676;23.356;2023-08-01T07:09:10;24.07;50.72
79244;SHT31;68672;42.676;23.356;2023-08-01T07:11:38;24.14;50.53
79244;SHT31;68672;42.676;23.356;2023-08-01T07:14:04;24.21;50.45
79244;SHT31;68672;42.676;23.356;2023-08-01T07:16:29;24.31;50.32
79244;SHT31;68672;42.676;23.356;2023-08-01T07:19:00;24.42;50.09
79244;SHT31;68672;42.676;23.356;2023-08-01T07:21:26;24.52;49.90
79244;SHT31;68672;42.676;23.356;2023-08-01T07:23:51;24.64;49.74
79244;SHT31;68672;42.676;23.356;2023-08-01T07:26:17;24.72;48.94
79244;SHT31;68672;42.676;23.356;2023-08-01T07:28:45;24.79;48.48
79244;SHT31;68672;42.676;23.356;2023-08-01T07:31:10;24.85;48.60
79244;SHT31;68672;42.676;23.356;2023-08-01T07:33:36;24.96;49.21
79244;SHT31;68672;42.676;23.356;2023-08-01T07:36:02;25.02;48.46
79244;SHT31;68672;42.676;23.356;2023-08-01T07:38:28;25.13;48.25
79244;SHT31;68672;42.676;23.356;2023-08-01T07:40:54;25.23;47.83
79244;SHT31;68672;42.676;23.356;2023-08-01T07:43:20;25.33;48.08
79244;SHT31;68672;42.676;23.356;2023-08-01T07:45:46;25.41;46.93
79244;SHT31;68672;42.676;23.356;2023-08-01T07:48:11;25.43;47.00
79244;SHT31;68672;42.676;23.356;2023-08-01T07:50:37;25.50;47.11
79244;SHT31;68672;42.676;23.356;2023-08-01T07:53:05;25.57;47.16
79244;SHT31;68672;42.676;23.356;2023-08-01T07:55:33;25.67;47.05
79244;SHT31;68672;42.676;23.356;2023-08-01T07:57:59;25.75;46.93
79244;SHT31;68672;42.676;23.356;2023-08-01T08:00:24;25.85;46.77
79244;SHT31;68672;42.676;23.356;2023-08-01T08:02:50;25.97;46.06
79244;SHT31;68672;42.676;23.356;2023-08-01T08:05:15;26.05;45.55
79244;SHT31;68672;42.676;23.356;2023-08-01T08:07:41;26.12;45.72
79244;SHT31;68672;42.676;23.356;2023-08-01T08:10:07;26.21;45.68
79244;SHT31;68672;42.676;23.356;2023-08-01T08:12:32;26.31;45.62
79244;SHT31;68672;42.676;23.356;2023-08-01T08:14:58;26.39;45.04
79244;SHT31;68672;42.676;23.356;2023-08-01T08:17:29;26.45;45.01
79244;SHT31;68672;42.676;23.356;2023-08-01T08:19:57;26.50;45.03
79244;SHT31;68672;42.676;23.356;2023-08-01T08:22:25;26.60;44.94
79244;SHT31;68672;42.676;23.356;2023-08-01T08:24:53;26.69;44.33
79244;SHT31;68672;42.676;23.356;2023-08-01T08:27:19;26.77;44.02
79244;SHT31;68672;42.676;23.356;2023-08-01T08:29:44;26.84;42.93
79244;SHT31;68672;42.676;23.356;2023-08-01T08:32:09;26.88;43.28
79244;SHT31;68672;42.676;23.356;2023-08-01T08:34:35;26.88;43.33
79244;SHT31;68672;42.676;23.356;2023-08-01T08:37:02;26.91;43.39
79244;SHT31;68672;42.676;23.356;2023-08-01T08:39:27;26.97;43.61
79244;SHT31;68672;42.676;23.356;2023-08-01T08:41:53;27.04;43.53
79244;SHT31;68672;42.676;23.356;2023-08-01T08:44:20;27.06;43.65
79244;SHT31;68672;42.676;23.356;2023-08-01T08:46:50;27.12;42.93
79244;SHT31;68672;42.676;23.356;2023-08-01T08:49:18;27.24;42.47
79244;SHT31;68672;42.676;23.356;2023-08-01T08:51:45;27.35;42.33
79244;SHT31;68672;42.676;23.356;2023-08-01T08:54:11;27.46;42.54
79244;SHT31;68672;42.676;23.356;2023-08-01T08:56:38;27.59;42.13
79244;SHT31;68672;42.676;23.356;2023-08-01T08:59:07;27.69;42.12
79244;SHT31;68672;42.676;23.356;2023-08-01T09:01:35;27.79;41.84
79244;SHT31;68672;42.676;23.356;2023-08-01T09:04:01;27.86;41.76
79244;SHT31;68672;42.676;23.356;2023-08-01T09:06:40;28.05;42.19
79244;SHT31;68672;42.676;23.356;2023-08-01T09:09:13;28.13;41.72
79244;SHT31;68672;42.676;23.356;2023-08-01T09:11:52;28.30;40.86
79244;SHT31;68672;42.676;23.356;2023-08-01T09:14:19;28.41;40.61
79244;SHT31;68672;42.676;23.356;2023-08-01T09:16:45;28.53;40.10
79244;SHT31;68672;42.676;23.356;2023-08-01T09:19:16;28.60;39.76
79244;SHT31;68672;42.676;23.356;2023-08-01T09:21:42;28.67;39.04
79244;SHT31;68672;42.676;23.356;2023-08-01T09:24:13;28.85;38.94
79244;SHT31;68672;42.676;23.356;2023-08-01T09:26:39;28.87;39.17
79244;SHT31;68672;42.676;23.356;2023-08-01T09:29:05;28.98;38.65
79244;SHT31;68672;42.676;23.356;2023-08-01T09:31:33;29.16;38.50
79244;SHT31;68672;42.676;23.356;2023-08-01T09:34:01;29.40;38.04
79244;SHT31;68672;42.676;23.356;2023-08-01T09:36:31;29.50;38.09
79244;SHT31;68672;42.676;23.356;2023-08-01T09:39:03;29.60;37.61
79244;SHT31;68672;42.676;23.356;2023-08-01T09:41:30;29.72;36.96
79244;SHT31;68672;42.676;23.356;2023-08-01T09:43:55;29.87;36.84
79244;SHT31;68672;42.676;23.356;2023-08-01T09:46:21;29.90;36.86
79244;SHT31;68672;42.676;23.356;2023-08-01T09:48:47;30.01;36.35
79244;SHT31;68672;42.676;23.356;2023-08-01T09:51:17;30.17;36.65
79244;SHT31;68672;42.676;23.356;2023-08-01T09:54:00;30.25;36.47
79244;SHT31;68672;42.676;23.356;2023-08-01T09:56:26;30.35;36.42
79244;SHT31;68672;42.676;23.356;2023-08-01T09:58:54;30.45;36.02
79244;SHT31;68672;42.676;23.356;2023-08-01T10:01:22;30.55;35.82
79244;SHT31;68672;42.676;23.356;2023-08-01T10:03:54;30.62;35.98
79244;SHT31;68672;42.676;23.356;2023-08-01T10:06:23;30.76;35.42
79244;SHT31;68672;42.676;23.356;2023-08-01T10:08:51;30.83;35.84
79244;SHT31;68672;42.676;23.356;2023-08-01T10:11:18;30.96;34.90
79244;SHT31;68672;42.676;23.356;2023-08-01T10:13:44;30.87;35.04
79244;SHT31;68672;42.676;23.356;2023-08-01T10:16:16;30.87;35.49
79244;SHT31;68672;42.676;23.356;2023-08-01T10:18:42;31.00;35.31
79244;SHT31;68672;42.676;23.356;2023-08-01T10:21:18;31.03;35.06
79244;SHT31;68672;42.676;23.356;2023-08-01T10:23:46;31.11;35.00
79244;SHT31;68672;42.676;23.356;2023-08-01T10:26:13;31.13;35.03
79244;SHT31;68672;42.676;23.356;2023-08-01T10:28:50;31.17;34.68
79244;SHT31;68672;42.676;23.356;2023-08-01T10:31:17;31.29;35.01
79244;SHT31;68672;42.676;23.356;2023-08-01T10:33:47;31.34;34.71
79244;SHT31;68672;42.676;23.356;2023-08-01T10:38:58;31.41;34.72
79244;SHT31;68672;42.676;23.356;2023-08-01T10:41:35;31.33;34.42
79244;SHT31;68672;42.676;23.356;2023-08-01T10:49:15;30.84;35.29
79244;SHT31;68672;42.676;23.356;2023-08-01T10:51:41;30.96;34.41
79244;SHT31;68672;42.676;23.356;2023-08-01T10:54:06;30.99;34.66
79244;SHT31;68672;42.676;23.356;2023-08-01T10:56:32;31.04;34.32
79244;SHT31;68672;42.676;23.356;2023-08-01T10:58:58;31.16;34.75
79244;SHT31;68672;42.676;23.356;2023-08-01T11:01:24;31.20;34.59
79244;SHT31;68672;42.676;23.356;2023-08-01T11:03:51;31.27;33.91
79244;SHT31;68672;42.676;23.356;2023-08-01T11:06:17;31.14;34.14
79244;SHT31;68672;42.676;23.356;2023-08-01T11:08:42;30.96;34.79
79244;SHT31;68672;42.676;23.356;2023-08-01T11:11:12;31.00;34.15
79244;SHT31;68672;42.676;23.356;2023-08-01T11:13:38;31.13;33.75
79244;SHT31;68672;42.676;23.356;2023-08-01T11:16:04;31.24;33.58
79244;SHT31;68672;42.676;23.356;2023-08-01T11:18:44;31.38;32.91
79244;SHT31;68672;42.676;23.356;2023-08-01T11:21:10;31.47;32.64
79244;SHT31;68672;42.676;23.356;2023-08-01T11:23:36;31.60;32.96
79244;SHT31;68672;42.676;23.356;2023-08-01T11:26:15;31.71;31.82
79244;SHT31;68672;42.676;23.356;2023-08-01T11:28:41;31.77;31.68
79244;SHT31;68672;42.676;23.356;2023-08-01T11:31:12;31.91;31.76
79244;SHT31;68672;42.676;23.356;2023-08-01T11:33:38;31.95;31.49
79244;SHT31;68672;42.676;23.356;2023-08-01T11:36:08;32.02;31.28
79244;SHT31;68672;42.676;23.356;2023-08-01T11:38:34;32.12;31.52
79244;SHT31;68672;42.676;23.356;2023-08-01T11:41:00;32.23;32.13
79244;SHT31;68672;42.676;23.356;2023-08-01T11:43:26;32.39;31.00
79244;SHT31;68672;42.676;23.356;2023-08-01T11:45:58;32.57;30.23
79244;SHT31;68672;42.676;23.356;2023-08-01T11:48:26;32.78;30.67
79244;SHT31;68672;42.676;23.356;2023-08-01T11:50:59;33.03;30.33
79244;SHT31;68672;42.676;23.356;2023-08-01T11:53:24;33.15;30.00
79244;SHT31;68672;42.676;23.356;2023-08-01T11:55:50;33.17;29.83
79244;SHT31;68672;42.676;23.356;2023-08-01T11:58:34;33.24;30.11
79244;SHT31;68672;42.676;23.356;2023-08-01T12:01:11;33.36;30.50
79244;SHT31;68672;42.676;23.356;2023-08-01T12:03:50;33.48;30.65
79244;SHT31;68672;42.676;23.356;2023-08-01T12:06:17;33.58;30.28
79244;SHT31;68672;42.676;23.356;2023-08-01T12:08:44;33.68;30.21
79244;SHT31;68672;42.676;23.356;2023-08-01T12:11:28;33.82;29.84
79244;SHT31;68672;42.676;23.356;2023-08-01T12:14:11;33.88;29.61
79244;SHT31;68672;42.676;23.356;2023-08-01T12:16:39;33.88;29.57
79244;SHT31;68672;42.676;23.356;2023-08-01T12:19:05;33.92;29.80
79244;SHT31;68672;42.676;23.356;2023-08-01T12:21:32;33.95;29.98
79244;SHT31;68672;42.676;23.356;2023-08-01T12:23:58;33.96;29.65
79244;SHT31;68672;42.676;23.356;2023-08-01T12:26:23;33.95;29.60
79244;SHT31;68672;42.676;23.356;2023-08-01T12:28:49;33.92;28.67
79244;SHT31;68672;42.676;23.356;2023-08-01T12:31:18;33.89;28.80
79244;SHT31;68672;42.676;23.356;2023-08-01T12:33:44;33.89;28.54
79244;SHT31;68672;42.676;23.356;2023-08-01T12:36:09;33.77;28.49
79244;SHT31;68672;42.676;23.356;2023-08-01T12:38:37;33.68;28.33
79244;SHT31;68672;42.676;23.356;2023-08-01T12:41:03;33.48;28.34
79244;SHT31;68672;42.676;23.356;2023-08-01T12:43:28;33.38;28.93
79244;SHT31;68672;42.676;23.356;2023-08-01T12:45:54;33.38;29.25
79244;SHT31;68672;42.676;23.356;2023-08-01T12:48:21;33.35;29.56
79244;SHT31;68672;42.676;23.356;2023-08-01T12:50:47;33.32;29.66
79244;SHT31;68672;42.676;23.356;2023-08-01T12:53:16;33.38;29.80
79244;SHT31;68672;42.676;23.356;2023-08-01T12:55:43;33.35;29.70
79244;SHT31;68672;42.676;23.356;2023-08-01T12:58:09;33.38;29.22
79244;SHT31;68672;42.676;23.356;2023-08-01T13:00:38;33.31;29.44
79244;SHT31;68672;42.676;23.356;2023-08-01T13:03:04;33.34;29.51
79244;SHT31;68672;42.676;23.356;2023-08-01T13:05:29;33.29;29.28
79244;SHT31;68672;42.676;23.356;2023-08-01T13:07:54;33.28;29.52
79244;SHT31;68672;42.676;23.356;2023-08-01T13:10:20;33.25;29.83
79244;SHT31;68672;42.676;23.356;2023-08-01T13:12:45;33.22;29.52
79244;SHT31;68672;42.676;23.356;2023-08-01T13:15:11;33.12;29.60
79244;SHT31;68672;42.676;23.356;2023-08-01T13:17:36;33.14;29.02
79244;SHT31;68672;42.676;23.356;2023-08-01T13:20:02;33.10;28.99
79244;SHT31;68672;42.676;23.356;2023-08-01T13:22:28;33.07;29.39
79244;SHT31;68672;42.676;23.356;2023-08-01T13:24:54;33.08;29.44
79244;SHT31;68672;42.676;23.356;2023-08-01T13:27:19;33.07;28.80
79244;SHT31;68672;42.676;23.356;2023-08-01T13:29:47;32.97;29.37
79244;SHT31;68672;42.676;23.356;2023-08-01T13:32:16;32.98;30.20
79244;SHT31;68672;42.676;23.356;2023-08-01T13:34:41;32.94;29.60
79244;SHT31;68672;42.676;23.356;2023-08-01T13:37:09;32.88;29.15
79244;SHT31;68672;42.676;23.356;2023-08-01T13:39:35;32.77;29.48
79244;SHT31;68672;42.676;23.356;2023-08-01T13:42:00;32.68;29.92
79244;SHT31;68672;42.676;23.356;2023-08-01T13:44:26;32.61;29.87
79244;SHT31;68672;42.676;23.356;2023-08-01T13:46:51;32.64;29.44
79244;SHT31;68672;42.676;23.356;2023-08-01T13:49:17;32.60;29.41
79244;SHT31;68672;42.676;23.356;2023-08-01T13:51:42;32.60;29.00
79244;SHT31;68672;42.676;23.356;2023-08-01T13:54:10;32.53;29.31
79244;SHT31;68672;42.676;23.356;2023-08-01T13:56:39;32.52;29.60
79244;SHT31;68672;42.676;23.356;2023-08-01T13:59:04;32.53;30.12
79244;SHT31;68672;42.676;23.356;2023-08-01T14:01:30;32.53;29.89
79244;SHT31;68672;42.676;23.356;2023-08-01T14:03:55;32.53;29.49
79244;SHT31;68672;42.676;23.356;2023-08-01T14:06:23;32.52;29.10
79244;SHT31;68672;42.676;23.356;2023-08-01T14:08:49;32.52;28.18
79244;SHT31;68672;42.676;23.356;2023-08-01T14:11:14;32.50;27.34
79244;SHT31;68672;42.676;23.356;2023-08-01T14:13:42;32.47;28.08
79244;SHT31;68672;42.676;23.356;2023-08-01T14:16:08;32.49;29.49
79244;SHT31;68672;42.676;23.356;2023-08-01T14:18:33;32.57;29.62
79244;SHT31;68672;42.676;23.356;2023-08-01T14:21:01;32.52;29.52
79244;SHT31;68672;42.676;23.356;2023-08-01T14:23:30;32.53;28.96
79244;SHT31;68672;42.676;23.356;2023-08-01T14:25:57;32.63;29.15
79244;SHT31;68672;42.676;23.356;2023-08-01T14:28:26;32.78;28.66
79244;SHT31;68672;42.676;23.356;2023-08-01T14:30:51;32.80;28.39
79244;SHT31;68672;42.676;23.356;2023-08-01T14:33:16;32.68;28.62
79244;SHT31;68672;42.676;23.356;2023-08-01T14:35:42;32.71;28.30
79244;SHT31;68672;42.676;23.356;2023-08-01T14:38:11;32.70;28.46
79244;SHT31;68672;42.676;23.356;2023-08-01T14:40:37;32.74;27.91
79244;SHT31;68672;42.676;23.356;2023-08-01T14:43:04;32.84;27.93
79244;SHT31;68672;42.676;23.356;2023-08-01T14:45:32;32.90;28.94
79244;SHT31;68672;42.676;23.356;2023-08-01T14:48:01;32.87;28.67
79244;SHT31;68672;42.676;23.356;2023-08-01T14:50:27;32.84;28.55
79244;SHT31;68672;42.676;23.356;2023-08-01T14:52:52;32.68;28.27
79244;SHT31;68672;42.676;23.356;2023-08-01T14:55:18;32.56;28.15
79244;SHT31;68672;42.676;23.356;2023-08-01T14:57:47;32.44;28.74
79244;SHT31;68672;42.676;23.356;2023-08-01T15:00:13;32.33;29.17
79244;SHT31;68672;42.676;23.356;2023-08-01T15:02:38;32.29;28.74
79244;SHT31;68672;42.676;23.356;2023-08-01T15:05:04;32.30;29.15
79244;SHT31;68672;42.676;23.356;2023-08-01T15:07:29;32.29;29.25
79244;SHT31;68672;42.676;23.356;2023-08-01T15:10:01;32.26;29.49
79244;SHT31;68672;42.676;23.356;2023-08-01T15:12:26;32.12;29.57
79244;SHT31;68672;42.676;23.356;2023-08-01T15:14:56;32.02;28.77
79244;SHT31;68672;42.676;23.356;2023-08-01T15:17:22;32.06;28.65
79244;SHT31;68672;42.676;23.356;2023-08-01T15:19:48;31.96;29.01